Time;durP1;ratioP1;P1;durP2;ratioP2;P2;SDS_P1;SDS_P2;PMS_P1;PMS_P2;Temp;Humidity;BMP_temperature;BMP_pressure;BME280_temperature;BME280_humidity;BME280_pressure;Samples;Min_cycle;Max_cycle;Signal;HPM_P1;HPM_P2
2021/08/19 00:00:27;;;;;;;3.07;1.57;;;18.40;1.00;;;;;;5056428;28;20246;-77
2021/08/19 00:02:57;;;;;;;1.60;1.50;;;18.40;1.00;;;;;;5063020;28;20424;-77
2021/08/19 00:05:22;;;;;;;2.13;1.43;;;18.40;1.00;;;;;;5068540;28;20782;-77
2021/08/19 00:07:51;;;;;;;3.40;2.00;;;18.40;1.00;;;;;;5068825;28;20486;-77
2021/08/19 00:10:17;;;;;;;4.20;1.70;;;18.40;1.00;;;;;;5054985;28;20400;-77
2021/08/19 00:12:45;;;;;;;3.80;1.70;;;18.40;1.00;;;;;;5072811;28;20426;-77
2021/08/19 00:15:11;;;;;;;4.50;1.70;;;18.40;1.00;;;;;;5056021;28;20185;-77
2021/08/19 00:17:39;;;;;;;5.33;1.80;;;18.40;1.00;;;;;;5056293;28;20459;-77
2021/08/19 00:20:05;;;;;;;6.70;1.70;;;18.40;1.00;;;;;;5056053;28;20367;-77
2021/08/19 00:22:39;;;;;;;5.13;1.70;;;18.40;1.00;;;;;;5063622;28;20414;-77
2021/08/19 00:25:06;;;;;;;1.60;1.50;;;18.40;1.00;;;;;;5076032;28;20366;-77
2021/08/19 00:27:39;;;;;;;6.30;1.70;;;18.40;1.00;;;;;;5072767;28;20401;-77
2021/08/19 00:30:09;;;;;;;3.00;1.63;;;18.40;1.00;;;;;;5054841;28;20444;-77
2021/08/19 00:32:39;;;;;;;4.37;1.60;;;18.40;1.00;;;;;;5065129;28;20435;-78
2021/08/19 00:35:05;;;;;;;1.90;1.80;;;18.40;1.00;;;;;;5075811;28;20779;-77
2021/08/19 00:37:33;;;;;;;2.30;1.70;;;18.40;1.00;;;;;;5073419;28;20929;-77
2021/08/19 00:39:59;;;;;;;1.50;1.40;;;18.40;1.00;;;;;;5064156;28;20468;-77
2021/08/19 00:42:27;;;;;;;1.67;1.57;;;18.40;1.00;;;;;;5073439;28;20796;-77
2021/08/19 00:45:05;;;;;;;8.70;2.37;;;18.40;1.00;;;;;;5075069;28;20444;-77
2021/08/19 00:47:37;;;;;;;4.60;1.87;;;18.40;1.00;;;;;;5073894;28;20453;-77
2021/08/19 00:50:09;;;;;;;1.97;1.87;;;18.40;1.00;;;;;;5055461;28;20738;-77
2021/08/19 00:52:57;;;;;;;2.40;1.40;;;18.40;1.00;;;;;;5055883;28;20820;-77
2021/08/19 00:55:23;;;;;;;2.00;1.80;;;18.40;1.00;;;;;;5055165;28;20432;-77
2021/08/19 00:57:49;;;;;;;4.60;2.00;;;18.40;1.00;;;;;;5072082;28;20508;-78
2021/08/19 01:00:15;;;;;;;2.03;1.50;;;18.40;1.00;;;;;;5075608;28;20162;-78
2021/08/19 01:02:50;;;;;;;1.70;1.50;;;18.40;1.00;;;;;;5072080;28;20435;-77
2021/08/19 01:05:44;;;;;;;6.83;1.70;;;18.30;1.00;;;;;;5066371;28;20382;-77
2021/08/19 01:08:15;;;;;;;2.13;1.93;;;18.30;1.00;;;;;;5062207;28;20410;-77
2021/08/19 01:10:45;;;;;;;3.50;1.63;;;18.30;1.00;;;;;;5073048;28;20420;-77
2021/08/19 01:13:11;;;;;;;1.63;1.47;;;18.40;1.00;;;;;;5075200;28;20419;-77
2021/08/19 01:15:39;;;;;;;4.50;1.63;;;18.30;1.00;;;;;;5075113;28;20798;-77
2021/08/19 01:18:44;;;;;;;1.43;1.33;;;18.40;1.00;;;;;;5073432;28;20550;-77
2021/08/19 01:21:17;;;;;;;1.47;1.37;;;18.30;1.00;;;;;;5055161;28;20390;-77
2021/08/19 01:23:43;;;;;;;1.50;1.40;;;18.30;1.00;;;;;;5054399;28;20404;-77
2021/08/19 01:26:19;;;;;;;2.23;1.80;;;18.30;1.00;;;;;;5054718;28;20390;-77
2021/08/19 01:28:47;;;;;;;1.77;1.67;;;18.30;1.00;;;;;;5055200;28;20442;-77
2021/08/19 01:31:27;;;;;;;2.53;1.73;;;18.30;1.00;;;;;;5069606;28;20428;-77
2021/08/19 01:33:53;;;;;;;2.73;1.67;;;18.30;1.00;;;;;;5073989;28;20443;-77
2021/08/19 01:36:21;;;;;;;2.00;1.60;;;18.30;1.00;;;;;;5074334;28;20446;-77
2021/08/19 01:38:48;;;;;;;2.40;1.80;;;18.30;1.00;;;;;;5074269;28;20495;-77
2021/08/19 01:41:14;;;;;;;1.67;1.53;;;18.30;1.00;;;;;;5074747;28;20385;-77
2021/08/19 01:43:41;;;;;;;1.47;1.37;;;18.30;1.00;;;;;;5064831;28;20892;-77
2021/08/19 01:46:10;;;;;;;3.40;1.67;;;18.30;1.00;;;;;;5073970;28;20450;-77
2021/08/19 01:48:39;;;;;;;2.17;2.00;;;18.30;1.00;;;;;;5062623;28;20423;-77
2021/08/19 01:51:21;;;;;;;1.60;1.50;;;18.30;1.00;;;;;;5054427;28;20402;-77
2021/08/19 01:53:51;;;;;;;1.80;1.70;;;18.20;1.00;;;;;;5061413;28;20495;-78
2021/08/19 01:56:33;;;;;;;2.90;1.60;;;18.20;1.00;;;;;;5073079;28;20469;-77
2021/08/19 01:58:58;;;;;;;3.00;2.00;;;18.20;1.00;;;;;;5068349;28;20399;-77
2021/08/19 02:01:27;;;;;;;2.30;2.00;;;18.20;1.00;;;;;;5054156;28;20389;-77
2021/08/19 02:03:57;;;;;;;2.03;1.83;;;18.20;1.00;;;;;;5069112;28;20208;-77
2021/08/19 02:06:27;;;;;;;5.90;2.30;;;18.20;1.00;;;;;;5073990;28;20404;-77
2021/08/19 02:08:57;;;;;;;4.90;2.13;;;18.20;1.00;;;;;;5059659;28;20915;-77
2021/08/19 02:11:27;;;;;;;2.33;2.00;;;18.20;1.00;;;;;;5054760;28;20597;-77
2021/08/19 02:14:09;;;;;;;4.93;2.17;;;18.20;1.00;;;;;;5054115;28;20404;-77
2021/08/19 02:16:45;;;;;;;5.47;1.97;;;18.20;1.00;;;;;;5054169;28;20536;-78
2021/08/19 02:19:32;;;;;;;2.20;2.00;;;18.20;1.00;;;;;;5066331;28;20422;-77
2021/08/19 02:22:03;;;;;;;2.30;2.07;;;18.20;1.00;;;;;;5062807;28;20419;-77
2021/08/19 02:24:51;;;;;;;2.53;2.27;;;18.10;1.00;;;;;;5062084;28;20422;-77
2021/08/19 02:27:21;;;;;;;2.77;1.90;;;18.20;1.00;;;;;;5074207;28;20797;-77
2021/08/19 02:29:51;;;;;;;2.20;2.00;;;18.10;1.00;;;;;;5055587;28;20770;-77
2021/08/19 02:32:16;;;;;;;2.00;1.90;;;18.10;1.00;;;;;;5054171;28;20884;-77
2021/08/19 02:34:52;;;;;;;1.90;1.80;;;18.20;1.00;;;;;;5062145;28;20405;-77
2021/08/19 02:37:21;;;;;;;2.20;1.97;;;18.20;1.00;;;;;;5073825;28;20188;-77
2021/08/19 02:39:51;;;;;;;1.90;1.80;;;18.20;1.00;;;;;;5055950;28;20387;-77
2021/08/19 02:42:17;;;;;;;4.23;2.27;;;18.20;1.00;;;;;;5056739;28;20902;-78
2021/08/19 02:44:45;;;;;;;5.80;2.10;;;18.20;1.00;;;;;;5056416;28;20409;-77
2021/08/19 02:47:21;;;;;;;2.37;2.20;;;18.20;1.00;;;;;;5058084;28;20184;-77
2021/08/19 02:49:57;;;;;;;3.17;2.20;;;18.20;1.00;;;;;;5058412;28;20420;-77
2021/08/19 02:52:27;;;;;;;7.80;3.20;;;18.20;1.00;;;;;;5057391;28;20848;-77
2021/08/19 02:54:52;;;;;;;2.23;2.03;;;18.20;1.00;;;;;;5057418;28;20394;-77
2021/08/19 02:57:21;;;;;;;5.53;2.20;;;18.20;1.00;;;;;;5064503;28;20525;-77
2021/08/19 02:59:46;;;;;;;2.80;2.10;;;18.20;1.00;;;;;;5087071;28;20541;-77
2021/08/19 03:02:12;;;;;;;2.40;2.20;;;18.10;1.00;;;;;;5075115;28;20394;-77
2021/08/19 03:04:38;;;;;;;4.30;2.37;;;18.20;1.00;;;;;;5076240;28;20180;-77
2021/08/19 03:07:03;;;;;;;3.57;2.20;;;18.20;1.00;;;;;;5069501;28;20187;-78
2021/08/19 03:09:39;;;;;;;2.17;2.07;;;18.20;1.00;;;;;;5065869;28;20169;-78
2021/08/19 03:12:06;;;;;;;3.77;2.33;;;18.20;1.00;;;;;;5056306;28;20541;-79
2021/08/19 03:14:45;;;;;;;5.40;2.80;;;18.10;1.00;;;;;;5057706;28;20443;-78
2021/08/19 03:17:50;;;;;;;2.57;2.37;;;18.10;1.00;;;;;;5057156;28;20430;-78
2021/08/19 03:20:17;;;;;;;3.10;2.20;;;18.10;1.00;;;;;;5058684;28;20450;-77
2021/08/19 03:22:42;;;;;;;2.60;2.17;;;18.00;1.00;;;;;;5076023;28;20407;-78
2021/08/19 03:25:15;;;;;;;2.50;2.10;;;18.00;1.00;;;;;;5077513;28;20443;-77
2021/08/19 03:27:57;;;;;;;7.20;2.37;;;18.10;1.00;;;;;;5075947;28;20219;-78
2021/08/19 03:30:27;;;;;;;2.87;2.20;;;18.10;1.00;;;;;;5058221;28;20397;-77
2021/08/19 03:32:53;;;;;;;3.10;2.20;;;18.00;1.00;;;;;;5057384;28;20425;-77
2021/08/19 03:35:45;;;;;;;4.10;2.40;;;18.10;1.00;;;;;;5057549;28;20388;-78
2021/08/19 03:38:10;;;;;;;2.33;1.93;;;18.10;1.00;;;;;;5057063;28;20470;-79
2021/08/19 03:40:36;;;;;;;2.37;2.17;;;18.00;1.00;;;;;;5073289;28;20510;-78
2021/08/19 03:43:02;;;;;;;2.63;2.17;;;18.00;1.00;;;;;;5076758;28;20155;-77
2021/08/19 03:45:28;;;;;;;5.90;2.50;;;18.00;1.00;;;;;;5076307;28;20187;-78
2021/08/19 03:47:57;;;;;;;5.27;2.57;;;18.00;1.00;;;;;;5076380;28;20184;-78
2021/08/19 03:50:23;;;;;;;3.77;2.40;;;18.00;1.00;;;;;;5062544;28;20391;-78
2021/08/19 03:52:51;;;;;;;4.30;2.63;;;18.00;1.00;;;;;;5056332;28;21120;-78
2021/08/19 03:55:50;;;;;;;2.73;2.53;;;18.00;1.00;;;;;;5055982;28;20955;-78
2021/08/19 03:58:27;;;;;;;2.50;2.30;;;18.00;1.00;;;;;;5071662;28;20463;-78
2021/08/19 04:00:58;;;;;;;2.43;2.23;;;17.90;1.00;;;;;;5062363;28;20397;-79
2021/08/19 04:03:33;;;;;;;3.83;2.30;;;18.00;1.00;;;;;;5070751;28;20411;-76
2021/08/19 04:05:58;;;;;;;4.73;2.33;;;17.90;1.00;;;;;;5071717;28;20860;-75
2021/08/19 04:08:39;;;;;;;5.13;3.13;;;17.90;1.00;;;;;;5058531;28;20457;-79
2021/08/19 04:11:04;;;;;;;4.00;3.00;;;17.90;1.00;;;;;;5069350;28;20181;-77
2021/08/19 04:13:33;;;;;;;5.10;2.63;;;17.80;1.00;;;;;;5065775;28;20424;-77
2021/08/19 04:15:59;;;;;;;4.10;3.20;;;17.80;1.00;;;;;;5076432;28;20168;-77
2021/08/19 04:18:24;;;;;;;5.00;2.80;;;17.80;1.00;;;;;;5074846;28;20373;-77
2021/08/19 04:20:51;;;;;;;2.63;2.43;;;17.80;1.00;;;;;;5061297;28;20311;-79
2021/08/19 04:23:17;;;;;;;3.10;2.90;;;17.80;1.00;;;;;;5069572;28;20230;-76
2021/08/19 04:25:45;;;;;;;4.77;3.00;;;17.80;1.00;;;;;;5073894;28;20484;-76
2021/08/19 04:28:15;;;;;;;5.57;2.70;;;17.80;1.00;;;;;;5063014;28;20402;-76
2021/08/19 04:30:45;;;;;;;3.53;2.90;;;17.80;1.00;;;;;;5062969;28;20417;-76
2021/08/19 04:33:15;;;;;;;4.27;3.00;;;17.80;1.00;;;;;;5072580;28;20388;-76
2021/08/19 04:35:42;;;;;;;3.40;3.03;;;17.80;1.00;;;;;;5090440;28;20399;-75
2021/08/19 04:38:08;;;;;;;8.90;3.57;;;17.70;1.00;;;;;;5075648;28;20451;-74
2021/08/19 04:40:34;;;;;;;4.67;2.90;;;17.80;1.00;;;;;;5063415;28;20390;-75
2021/08/19 04:43:03;;;;;;;5.93;3.30;;;17.80;1.00;;;;;;5064406;28;20403;-75
2021/08/19 04:45:39;;;;;;;8.70;3.10;;;17.80;1.00;;;;;;5069040;28;20412;-75
2021/08/19 04:48:05;;;;;;;4.10;2.70;;;17.80;1.00;;;;;;5055518;28;20393;-76
2021/08/19 04:50:39;;;;;;;5.90;3.30;;;17.80;1.00;;;;;;5056239;28;20779;-78
2021/08/19 04:53:09;;;;;;;3.30;3.00;;;17.80;1.00;;;;;;5055446;28;20375;-83
2021/08/19 04:55:39;;;;;;;5.30;3.73;;;17.80;1.00;;;;;;5060823;28;20381;-81
2021/08/19 04:58:09;;;;;;;6.10;3.70;;;17.80;1.00;;;;;;5073522;28;20499;-82
2021/08/19 05:01:03;;;;;;;3.80;3.30;;;17.80;1.00;;;;;;5074607;28;20493;-81
2021/08/19 05:03:28;;;;;;;3.37;3.07;;;17.80;1.00;;;;;;5068271;28;20398;-81
2021/08/19 05:06:21;;;;;;;8.40;3.50;;;17.80;1.00;;;;;;5074693;28;20422;-84
2021/08/19 05:09:20;;;;;;;4.70;3.13;;;17.80;1.00;;;;;;5054974;28;20230;-84
2021/08/19 05:11:57;;;;;;;3.67;3.37;;;17.80;1.00;;;;;;5058480;28;20451;-75
2021/08/19 05:14:23;;;;;;;4.27;2.97;;;17.90;1.00;;;;;;5074894;28;20390;-75
2021/08/19 05:16:49;;;;;;;4.50;3.57;;;18.00;1.00;;;;;;5070393;28;20464;-75
2021/08/19 05:19:15;;;;;;;3.70;3.13;;;18.00;1.00;;;;;;5054819;28;21017;-76
2021/08/19 05:21:40;;;;;;;5.33;3.20;;;18.00;1.00;;;;;;5069901;28;20657;-75
2021/08/19 05:24:09;;;;;;;4.80;3.60;;;18.00;1.00;;;;;;5089644;28;20246;-75
2021/08/19 05:26:45;;;;;;;7.33;3.33;;;18.00;1.00;;;;;;5074164;28;20641;-75
2021/08/19 05:29:15;;;;;;;6.50;3.80;;;18.00;1.00;;;;;;5068913;28;20990;-75
2021/08/19 05:31:40;;;;;;;3.77;3.20;;;18.10;1.00;;;;;;5071465;28;20430;-75
2021/08/19 05:34:09;;;;;;;3.47;2.97;;;18.10;1.00;;;;;;5072989;28;20908;-76
2021/08/19 05:36:36;;;;;;;4.47;3.30;;;18.20;1.00;;;;;;5071601;28;20272;-76
2021/08/19 05:39:04;;;;;;;6.50;3.60;;;18.30;1.00;;;;;;5061824;28;20513;-77
2021/08/19 05:41:29;;;;;;;4.00;3.60;;;18.30;1.00;;;;;;5064547;28;20439;-77
2021/08/19 05:43:55;;;;;;;4.00;2.90;;;18.30;1.00;;;;;;5064573;28;20507;-77
2021/08/19 05:46:21;;;;;;;3.27;3.03;;;18.30;1.00;;;;;;5067015;28;20431;-77
2021/08/19 05:48:46;;;;;;;4.80;3.60;;;18.30;1.00;;;;;;5072886;28;20227;-77
2021/08/19 05:51:12;;;;;;;4.17;3.40;;;18.40;1.00;;;;;;5073025;28;20168;-76
2021/08/19 05:53:38;;;;;;;3.80;2.87;;;18.40;1.00;;;;;;5073201;28;20581;-76
2021/08/19 05:56:04;;;;;;;4.00;3.47;;;18.40;1.00;;;;;;5073086;28;20203;-76
2021/08/19 05:58:31;;;;;;;3.50;3.10;;;18.40;1.00;;;;;;5073041;28;20170;-77
2021/08/19 06:00:57;;;;;;;4.73;3.83;;;18.40;1.00;;;;;;5071936;28;20415;-77
2021/08/19 06:03:27;;;;;;;3.70;3.30;;;18.50;1.00;;;;;;5068056;28;20409;-77
2021/08/19 06:05:53;;;;;;;4.93;3.60;;;18.50;1.00;;;;;;5059736;28;20400;-78
2021/08/19 06:08:19;;;;;;;4.23;3.27;;;18.50;1.00;;;;;;5054940;28;20482;-77
2021/08/19 06:10:46;;;;;;;5.40;3.30;;;18.50;1.00;;;;;;5066212;28;20413;-81
2021/08/19 06:13:12;;;;;;;10.27;3.90;;;18.50;1.00;;;;;;5071991;28;20399;-81
2021/08/19 06:15:38;;;;;;;5.67;3.80;;;18.50;1.00;;;;;;5071313;28;20396;-81
2021/08/19 06:18:04;;;;;;;5.97;3.30;;;18.50;1.00;;;;;;5053717;28;20786;-80
2021/08/19 06:20:30;;;;;;;4.83;3.47;;;18.50;1.00;;;;;;5065689;28;20436;-81
2021/08/19 06:22:57;;;;;;;4.83;3.20;;;18.60;1.00;;;;;;5052880;28;20417;-81
2021/08/19 06:25:23;;;;;;;3.90;3.50;;;18.60;1.00;;;;;;5053771;28;20420;-79
2021/08/19 06:27:50;;;;;;;4.03;3.37;;;18.60;1.00;;;;;;5062341;28;20520;-77
2021/08/19 06:30:16;;;;;;;3.87;3.47;;;18.60;1.00;;;;;;5062769;28;20415;-77
2021/08/19 06:32:41;;;;;;;7.03;4.13;;;18.60;1.00;;;;;;5060877;28;20771;-77
2021/08/19 06:35:11;;;;;;;3.93;3.53;;;18.80;1.00;;;;;;5066644;28;20189;-75
2021/08/19 06:37:38;;;;;;;3.93;3.53;;;18.80;1.00;;;;;;5066775;28;20193;-76
2021/08/19 06:40:06;;;;;;;4.50;3.90;;;18.90;1.00;;;;;;5054005;28;20934;-75
2021/08/19 06:42:32;;;;;;;3.73;3.30;;;19.00;1.00;;;;;;5060434;28;20752;-75
2021/08/19 06:44:58;;;;;;;4.37;3.33;;;19.00;1.00;;;;;;5052474;28;20951;-75
2021/08/19 06:47:23;;;;;;;4.00;3.33;;;19.10;1.00;;;;;;5052586;28;20488;-74
2021/08/19 06:49:49;;;;;;;7.10;3.17;;;19.10;1.00;;;;;;5062870;28;20535;-74
2021/08/19 06:52:15;;;;;;;3.37;3.07;;;19.30;1.00;;;;;;5073017;28;20268;-72
2021/08/19 06:54:40;;;;;;;3.10;2.83;;;19.50;1.00;;;;;;5055576;28;20191;-79
2021/08/19 06:57:06;;;;;;;2.97;2.60;;;19.60;1.00;;;;;;5064698;28;20206;-80
2021/08/19 06:59:32;;;;;;;3.33;2.70;;;19.70;1.00;;;;;;5052483;28;20631;-83
2021/08/19 07:01:58;;;;;;;2.63;2.30;;;19.70;1.00;;;;;;5052294;28;20400;-81
2021/08/19 07:04:24;;;;;;;3.07;2.77;;;;;;;;;;5062625;28;20192;-81
2021/08/19 07:06:52;;;;;;;5.80;2.60;;;20.00;1.00;;;;;;5072617;28;20485;-80
2021/08/19 07:09:18;;;;;;;2.50;2.30;;;;;;;;;;5072389;28;20955;-80
2021/08/19 07:11:44;;;;;;;2.53;2.30;;;20.00;1.00;;;;;;5072170;28;20425;-78
2021/08/19 07:14:10;;;;;;;3.80;2.30;;;20.20;1.00;;;;;;5072416;28;20386;-82
2021/08/19 07:16:36;;;;;;;2.20;2.10;;;20.20;1.00;;;;;;5072288;28;20198;-77
2021/08/19 07:19:02;;;;;;;2.20;2.00;;;20.20;1.00;;;;;;5072415;28;20155;-76
2021/08/19 07:21:28;;;;;;;2.80;1.60;;;20.30;1.00;;;;;;5072596;28;20389;-76
2021/08/19 07:23:53;;;;;;;2.07;1.87;;;20.40;1.00;;;;;;5072024;28;20186;-76
2021/08/19 07:26:22;;;;;;;1.90;1.80;;;20.40;1.00;;;;;;5065238;28;20198;-77
2021/08/19 07:28:49;;;;;;;1.80;1.70;;;20.50;1.00;;;;;;5065007;28;20244;-77
2021/08/19 07:31:14;;;;;;;2.13;1.90;;;20.60;1.00;;;;;;5063381;28;20781;-77
2021/08/19 07:33:40;;;;;;;3.10;2.00;;;20.70;1.00;;;;;;5063941;28;20461;-77
2021/08/19 07:36:06;;;;;;;2.37;2.17;;;20.80;1.00;;;;;;5053768;28;20175;-77
2021/08/19 07:38:32;;;;;;;2.27;2.10;;;20.80;1.00;;;;;;5071698;28;20183;-76
2021/08/19 07:40:58;;;;;;;2.23;2.00;;;21.00;1.00;;;;;;5062191;28;20543;-77
2021/08/19 07:43:23;;;;;;;2.37;2.17;;;20.90;1.00;;;;;;5084412;28;20291;-77
2021/08/19 07:45:49;;;;;;;1.70;1.60;;;20.90;1.00;;;;;;5056526;28;20244;-77
2021/08/19 07:48:15;;;;;;;4.73;2.00;;;21.00;1.00;;;;;;5069739;28;20171;-77
2021/08/19 07:50:41;;;;;;;3.03;1.70;;;21.00;1.00;;;;;;5072825;28;20260;-77
2021/08/19 07:53:07;;;;;;;2.30;1.73;;;21.00;1.00;;;;;;5075946;28;20928;-77
2021/08/19 07:55:33;;;;;;;2.50;1.37;;;21.00;1.00;;;;;;5074602;28;20434;-77
2021/08/19 07:57:59;;;;;;;4.10;1.63;;;21.00;1.00;;;;;;5073196;28;20573;-77
2021/08/19 08:00:31;;;;;;;2.13;1.70;;;21.00;1.00;;;;;;5055482;28;20431;-77
2021/08/19 08:02:58;;;;;;;1.80;1.70;;;21.00;1.00;;;;;;5055196;28;20420;-78
2021/08/19 08:05:25;;;;;;;3.47;1.90;;;21.10;1.00;;;;;;5054326;28;20514;-77
2021/08/19 08:07:53;;;;;;;3.50;1.87;;;21.20;1.00;;;;;;5065546;28;20972;-77
2021/08/19 08:10:19;;;;;;;3.60;1.60;;;21.20;1.00;;;;;;5072882;28;20430;-77
2021/08/19 08:12:45;;;;;;;2.60;1.80;;;21.30;1.00;;;;;;5057912;28;20809;-78
2021/08/19 08:15:11;;;;;;;4.40;1.97;;;21.30;1.00;;;;;;5055173;28;20409;-78
2021/08/19 08:17:38;;;;;;;3.30;1.83;;;21.60;1.00;;;;;;5065755;28;20816;-78
2021/08/19 08:20:07;;;;;;;1.83;1.60;;;21.80;1.00;;;;;;5085011;28;20824;-78
2021/08/19 08:22:33;;;;;;;1.60;1.50;;;21.90;1.00;;;;;;5055173;28;20413;-77
2021/08/19 08:24:59;;;;;;;6.73;1.57;;;21.90;1.00;;;;;;5053691;28;20520;-76
2021/08/19 08:27:24;;;;;;;1.63;1.53;;;22.20;1.00;;;;;;5054803;28;20521;-77
2021/08/19 08:29:52;;;;;;;6.47;1.60;;;22.20;1.00;;;;;;5069349;28;20286;-77
2021/08/19 08:32:18;;;;;;;2.33;1.37;;;22.20;1.00;;;;;;5069770;28;20616;-77
2021/08/19 08:34:44;;;;;;;2.00;1.13;;;22.20;1.00;;;;;;5061697;28;20451;-77
2021/08/19 08:37:10;;;;;;;1.50;1.40;;;22.20;1.00;;;;;;5070756;28;20552;-77
2021/08/19 08:39:37;;;;;;;2.43;1.17;;;22.00;1.00;;;;;;5068802;28;20240;-77
2021/08/19 08:42:07;;;;;;;3.00;1.37;;;22.30;1.00;;;;;;5052956;28;20440;-77
2021/08/19 08:44:34;;;;;;;1.53;1.43;;;22.30;1.00;;;;;;5054517;28;20399;-77
2021/08/19 08:47:00;;;;;;;1.50;1.40;;;22.50;1.00;;;;;;5054409;28;20893;-77
2021/08/19 08:49:27;;;;;;;3.20;1.70;;;22.60;1.00;;;;;;5054433;28;20798;-78
2021/08/19 08:51:57;;;;;;;2.50;2.30;;;22.50;1.00;;;;;;5054778;28;20398;-77
2021/08/19 08:54:24;;;;;;;1.97;1.87;;;22.50;1.00;;;;;;5054449;28;20400;-77
2021/08/19 08:56:50;;;;;;;10.43;2.53;;;22.60;1.00;;;;;;5064955;28;20559;-77
2021/08/19 08:59:16;;;;;;;2.17;1.97;;;22.60;1.00;;;;;;5054996;28;20520;-77
2021/08/19 09:01:41;;;;;;;6.17;1.90;;;22.50;1.00;;;;;;5054282;28;20646;-77
2021/08/19 09:04:07;;;;;;;1.67;1.57;;;22.60;1.00;;;;;;5059989;28;20174;-77
2021/08/19 09:06:36;;;;;;;2.13;2.00;;;22.70;1.00;;;;;;5064974;28;20210;-77
2021/08/19 09:09:17;;;;;;;1.80;1.70;;;22.60;1.00;;;;;;5071197;28;20721;-77
2021/08/19 09:12:08;;;;;;;2.10;1.90;;;22.60;1.00;;;;;;5065562;28;20511;-77
2021/08/19 09:14:36;;;;;;;2.80;1.90;;;22.50;1.00;;;;;;5062585;28;20845;-77
2021/08/19 09:17:04;;;;;;;1.93;1.83;;;22.80;1.00;;;;;;5066393;28;20471;-77
2021/08/19 09:19:32;;;;;;;2.43;1.83;;;22.90;1.00;;;;;;5064836;28;20414;-77
2021/08/19 09:22:01;;;;;;;14.73;2.33;;;23.00;1.00;;;;;;5066629;28;20414;-77
2021/08/19 09:24:29;;;;;;;3.97;1.90;;;23.00;1.00;;;;;;5063415;28;20440;-77
2021/08/19 09:27:11;;;;;;;3.20;1.63;;;22.80;1.00;;;;;;5083589;28;20448;-77
2021/08/19 09:29:38;;;;;;;2.60;1.97;;;22.80;1.00;;;;;;5056809;28;20420;-77
2021/08/19 09:32:15;;;;;;;1.90;1.80;;;22.60;1.00;;;;;;5055953;28;20430;-77
2021/08/19 09:34:43;;;;;;;3.87;2.07;;;22.60;1.00;;;;;;5073340;28;20482;-77
2021/08/19 09:37:11;;;;;;;2.50;1.70;;;22.60;1.00;;;;;;5088136;28;20534;-77
2021/08/19 09:39:42;;;;;;;1.63;1.40;;;22.70;1.00;;;;;;5073408;28;20375;-77
2021/08/19 09:42:10;;;;;;;2.13;1.80;;;22.70;1.00;;;;;;5082589;28;20464;-77
2021/08/19 09:44:47;;;;;;;2.90;1.90;;;23.10;1.00;;;;;;5069204;28;20847;-77
2021/08/19 09:47:30;;;;;;;1.60;1.50;;;23.20;1.00;;;;;;5051983;28;20507;-78
2021/08/19 09:50:15;;;;;;;1.90;1.80;;;23.60;1.00;;;;;;5057945;28;20506;-77
2021/08/19 09:52:43;;;;;;;1.93;1.47;;;23.60;1.00;;;;;;5059018;28;20429;-77
2021/08/19 09:55:28;;;;;;;2.37;1.53;;;23.70;1.00;;;;;;5053239;28;20419;-77
2021/08/19 09:57:56;;;;;;;1.93;1.83;;;23.70;1.00;;;;;;5058238;28;20480;-77
2021/08/19 10:00:38;;;;;;;2.33;1.70;;;24.10;1.00;;;;;;5065526;28;20407;-78
2021/08/19 10:03:05;;;;;;;6.00;2.23;;;23.90;1.00;;;;;;5056455;28;20480;-78
2021/08/19 10:05:31;;;;;;;6.83;2.07;;;;;;;;;;5052972;28;20404;-77
2021/08/19 10:08:00;;;;;;;2.37;1.77;;;24.10;1.00;;;;;;5055623;28;20934;-77
2021/08/19 10:10:29;;;;;;;1.97;1.87;;;24.10;1.00;;;;;;5069500;28;20428;-78
2021/08/19 10:12:58;;;;;;;2.00;1.80;;;24.10;1.00;;;;;;5072837;28;20509;-76
2021/08/19 10:15:24;;;;;;;3.17;2.00;;;24.00;1.00;;;;;;5072834;28;20515;-76
2021/08/19 10:17:53;;;;;;;21.40;2.70;;;24.10;1.00;;;;;;5072597;28;20547;-76
2021/08/19 10:20:28;;;;;;;1.60;1.30;;;24.30;1.00;;;;;;5054849;28;20529;-76
2021/08/19 10:22:57;;;;;;;1.53;1.30;;;24.40;1.00;;;;;;5053034;28;20431;-76
2021/08/19 10:25:25;;;;;;;2.40;1.00;;;24.40;1.00;;;;;;5052836;28;20752;-76
2021/08/19 10:28:14;;;;;;;1.30;1.20;;;24.60;1.00;;;;;;5052660;28;20397;-76
2021/08/19 10:31:06;;;;;;;1.50;1.40;;;24.80;1.00;;;;;;5052621;28;20477;-77
2021/08/19 10:33:37;;;;;;;2.37;1.90;;;24.60;1.00;;;;;;5069805;28;20476;-77
2021/08/19 10:36:11;;;;;;;3.63;1.90;;;24.80;1.00;;;;;;5072536;28;20419;-77
2021/08/19 10:38:38;;;;;;;2.80;2.10;;;25.10;1.00;;;;;;5056521;28;20458;-76
2021/08/19 10:41:30;;;;;;;5.13;1.80;;;25.10;1.00;;;;;;5072725;28;20402;-76
2021/08/19 10:44:06;;;;;;;2.37;2.20;;;25.80;1.00;;;;;;5071938;28;20426;-76
2021/08/19 10:46:46;;;;;;;4.40;2.27;;;25.80;1.00;;;;;;5064459;28;20435;-76
2021/08/19 10:49:30;;;;;;;2.30;2.07;;;25.60;1.00;;;;;;5051382;28;20780;-75
2021/08/19 10:52:08;;;;;;;2.70;2.50;;;25.70;1.00;;;;;;5052580;28;20401;-76
2021/08/19 10:54:39;;;;;;;2.40;2.27;;;25.70;1.00;;;;;;5052945;28;20392;-76
2021/08/19 10:57:32;;;;;;;3.10;2.73;;;25.50;1.00;;;;;;5052405;28;20464;-76
2021/08/19 11:00:02;;;;;;;3.13;2.50;;;25.50;1.00;;;;;;5066343;28;20686;-75
2021/08/19 11:02:41;;;;;;;2.63;2.43;;;25.60;1.00;;;;;;5052653;28;20445;-77
2021/08/19 11:05:11;;;;;;;2.90;2.63;;;25.70;1.00;;;;;;5055282;28;20420;-77
2021/08/19 11:07:46;;;;;;;3.20;2.43;;;25.80;1.00;;;;;;5071530;28;20892;-77
2021/08/19 11:10:17;;;;;;;6.00;2.90;;;25.80;1.00;;;;;;5074206;28;20422;-77
2021/08/19 11:12:44;;;;;;;3.13;2.80;;;25.60;1.00;;;;;;5076309;28;20400;-76
2021/08/19 11:15:10;;;;;;;2.87;2.67;;;25.60;1.00;;;;;;5076247;28;20889;-77
2021/08/19 11:17:37;;;;;;;2.80;2.60;;;25.40;1.00;;;;;;5076122;28;20491;-77
2021/08/19 11:20:21;;;;;;;6.53;3.37;;;25.30;1.00;;;;;;5074887;28;20416;-77
2021/08/19 11:23:05;;;;;;;6.50;3.23;;;24.90;1.00;;;;;;5073391;28;20469;-77
2021/08/19 11:25:34;;;;;;;3.70;3.40;;;24.50;1.00;;;;;;5056162;28;20395;-77
2021/08/19 11:28:12;;;;;;;3.70;3.27;;;24.30;1.00;;;;;;5056063;28;20405;-77
2021/08/19 11:30:45;;;;;;;3.33;2.93;;;24.20;1.00;;;;;;5055945;28;20428;-77
2021/08/19 11:33:18;;;;;;;26.67;4.30;;;24.30;1.00;;;;;;5064499;28;20492;-77
2021/08/19 11:35:49;;;;;;;3.57;3.17;;;24.20;1.00;;;;;;5072700;28;20480;-77
2021/08/19 11:38:22;;;;;;;9.30;3.37;;;24.20;1.00;;;;;;5073108;28;20501;-77
2021/08/19 11:40:50;;;;;;;3.17;2.80;;;24.10;1.00;;;;;;5059657;28;20432;-77
2021/08/19 11:43:26;;;;;;;3.50;3.10;;;24.00;1.00;;;;;;5055800;28;20390;-77
2021/08/19 11:46:14;;;;;;;3.00;2.80;;;24.30;1.00;;;;;;5054445;28;20505;-77
2021/08/19 11:48:48;;;;;;;5.20;3.30;;;24.70;1.00;;;;;;5069893;28;20444;-77
2021/08/19 11:51:27;;;;;;;3.27;2.97;;;24.90;1.00;;;;;;5059954;28;20429;-77
2021/08/19 11:54:05;;;;;;;3.63;3.33;;;24.80;1.00;;;;;;5066820;28;20434;-77
2021/08/19 11:56:36;;;;;;;3.60;2.67;;;24.80;1.00;;;;;;5069786;28;20523;-81
2021/08/19 11:59:07;;;;;;;2.80;2.60;;;24.50;1.00;;;;;;5055441;28;20424;-83
2021/08/19 12:01:38;;;;;;;3.43;2.60;;;24.40;1.00;;;;;;5055140;28;20751;-77
2021/08/19 12:04:05;;;;;;;3.20;2.83;;;24.30;1.00;;;;;;5074751;28;20411;-82
2021/08/19 12:06:32;;;;;;;3.03;2.70;;;24.20;1.00;;;;;;5075185;28;20427;-82
2021/08/19 12:09:07;;;;;;;2.97;2.77;;;24.10;1.00;;;;;;5075313;28;20793;-77
2021/08/19 12:11:40;;;;;;;3.20;2.90;;;23.90;1.00;;;;;;5075239;28;20398;-77
2021/08/19 12:14:07;;;;;;;2.60;2.40;;;23.60;1.00;;;;;;5071493;28;20461;-77
2021/08/19 12:16:33;;;;;;;2.90;2.57;;;23.60;1.00;;;;;;5069906;28;20560;-77
2021/08/19 12:19:19;;;;;;;3.10;2.80;;;23.60;1.00;;;;;;5073322;28;20501;-76
2021/08/19 12:21:44;;;;;;;3.20;2.63;;;23.10;1.00;;;;;;5071849;28;20789;-76
2021/08/19 12:24:22;;;;;;;3.63;2.80;;;23.10;1.00;;;;;;5074856;28;20406;-76
2021/08/19 12:27:26;;;;;;;2.97;2.67;;;23.10;1.00;;;;;;5066845;28;20210;-76
2021/08/19 12:29:56;;;;;;;2.67;2.47;;;23.00;1.00;;;;;;5062471;28;20527;-78
2021/08/19 12:32:24;;;;;;;3.30;3.00;;;23.00;1.00;;;;;;5072646;28;20528;-82
2021/08/19 12:35:00;;;;;;;3.13;2.80;;;23.20;1.00;;;;;;5072974;28;20420;-83
2021/08/19 12:37:27;;;;;;;2.77;2.50;;;23.20;1.00;;;;;;5056588;28;20441;-83
2021/08/19 12:39:54;;;;;;;3.13;2.80;;;23.40;1.00;;;;;;5053840;28;20415;-78
2021/08/19 12:42:20;;;;;;;2.77;2.57;;;23.60;1.00;;;;;;5054421;28;20477;-82
2021/08/19 12:45:07;;;;;;;3.30;2.80;;;23.80;1.00;;;;;;5071298;28;20514;-72
2021/08/19 12:47:41;;;;;;;2.83;2.60;;;23.90;1.00;;;;;;5074617;28;20179;-78
2021/08/19 12:50:08;;;;;;;5.80;3.13;;;23.90;1.00;;;;;;5073487;28;20925;-78
2021/08/19 12:52:35;;;;;;;3.40;3.10;;;24.20;1.00;;;;;;5073765;28;20421;-78
2021/08/19 12:55:07;;;;;;;3.10;2.80;;;24.20;1.00;;;;;;5069207;28;20455;-77
2021/08/19 12:57:46;;;;;;;5.63;2.50;;;24.20;1.00;;;;;;5070140;28;20463;-77
2021/08/19 13:00:17;;;;;;;3.30;2.53;;;24.30;1.00;;;;;;5060342;28;20423;-77
2021/08/19 13:02:59;;;;;;;3.57;2.30;;;24.50;1.00;;;;;;5068163;28;20838;-78
2021/08/19 13:08:51;;;;;;;2.37;2.13;;;24.90;1.00;;;;;;5066222;28;20426;-83
2021/08/19 13:11:17;;;;;;;2.47;2.27;;;25.30;1.00;;;;;;5067788;28;20755;-83
2021/08/19 13:13:43;;;;;;;2.23;2.07;;;25.30;1.00;;;;;;5055334;28;20501;-78
2021/08/19 13:16:09;;;;;;;2.23;2.03;;;25.40;1.00;;;;;;5055375;28;20171;-78
2021/08/19 13:18:34;;;;;;;2.17;2.07;;;25.60;1.00;;;;;;5054959;28;20449;-77